Time;durP1;ratioP1;P1;durP2;ratioP2;P2;SDS_P1;SDS_P2;PMS_P1;PMS_P2;Temp;Humidity;BMP_temperature;BMP_pressure;BME280_temperature;BME280_humidity;BME280_pressure;Samples;Min_cycle;Max_cycle;Signal;HPM_P1;HPM_P2
2023/06/23 00:01:02;;;;;;;1.90;1.80;;;24.00;52.60;;;;;;20386;6868;308379;-81
2023/06/23 00:03:27;;;;;;;1.40;1.30;;;24.30;53.10;;;;;;20692;6868;117683;-81
2023/06/23 00:05:53;;;;;;;1.70;1.60;;;23.90;53.30;;;;;;20646;6868;118105;-81
2023/06/23 00:08:20;;;;;;;2.00;1.80;;;24.00;54.60;;;;;;20426;6868;279466;-80
2023/06/23 00:10:48;;;;;;;2.00;1.77;;;24.00;54.60;;;;;;20628;6868;117325;-81
2023/06/23 00:13:12;;;;;;;2.03;1.90;;;23.90;54.20;;;;;;20437;6868;279133;-80
2023/06/23 00:15:38;;;;;;;1.90;1.80;;;24.00;55.30;;;;;;20648;6868;118080;-80
2023/06/23 00:18:04;;;;;;;2.23;2.00;;;23.90;55.90;;;;;;20438;6868;283997;-79
2023/06/23 00:20:30;;;;;;;1.90;1.80;;;23.90;55.80;;;;;;20571;6868;117253;-84
2023/06/23 00:22:55;;;;;;;2.10;2.00;;;23.80;55.80;;;;;;20403;6868;345489;-80
2023/06/23 00:25:21;;;;;;;2.10;2.00;;;23.80;57.00;;;;;;20206;6939;311255;-79
2023/06/23 00:27:46;;;;;;;1.90;1.80;;;24.00;56.70;;;;;;20448;6939;117214;-79
2023/06/23 00:30:12;;;;;;;4.90;2.03;;;23.80;56.30;;;;;;20442;6939;117887;-79
2023/06/23 00:32:38;;;;;;;1.90;1.80;;;23.50;56.70;;;;;;20434;6939;117973;-79
2023/06/23 00:35:03;;;;;;;2.60;1.50;;;23.20;57.10;;;;;;20419;6939;124748;-78
2023/06/23 00:37:29;;;;;;;3.23;2.10;;;22.90;57.40;;;;;;20194;6937;282587;-78
2023/06/23 00:39:54;;;;;;;3.93;2.37;;;23.10;59.00;;;;;;20201;6938;287665;-77
2023/06/23 00:42:21;;;;;;;2.27;1.60;;;23.40;58.00;;;;;;20187;6938;314013;-79
2023/06/23 00:44:46;;;;;;;1.40;1.30;;;23.40;58.00;;;;;;20145;6957;340772;-77
2023/06/23 00:47:14;;;;;;;2.20;1.42;;;23.50;57.60;;;;;;20174;6954;344116;-77
2023/06/23 00:49:39;;;;;;;2.00;1.30;;;23.20;58.20;;;;;;20420;6939;117811;-77
2023/06/23 00:52:04;;;;;;;2.70;1.07;;;23.20;58.20;;;;;;20383;6954;117953;-77
2023/06/23 00:54:32;;;;;;;0.80;0.80;;;22.80;58.70;;;;;;20429;6935;117818;-77
2023/06/23 00:56:58;;;;;;;1.87;1.17;;;22.50;59.40;;;;;;20207;6935;314962;-76
2023/06/23 00:59:24;;;;;;;2.00;1.00;;;22.60;60.20;;;;;;20435;6935;118938;-76
2023/06/23 01:01:50;;;;;;;1.30;1.20;;;22.60;60.80;;;;;;20183;6935;340827;-77
2023/06/23 01:04:15;;;;;;;1.30;1.20;;;22.60;60.80;;;;;;20427;6935;117683;-77
2023/06/23 01:06:59;;;;;;;1.30;1.20;;;22.30;61.60;;;;;;20429;6935;117797;-76
2023/06/23 01:09:27;;;;;;;1.35;1.25;;;22.30;61.00;;;;;;20213;6935;320149;-77
2023/06/23 01:12:03;;;;;;;1.10;1.00;;;22.50;61.60;;;;;;20418;6935;122372;-77
2023/06/23 01:14:35;;;;;;;2.17;1.10;;;22.30;61.60;;;;;;20421;6935;117930;-76
2023/06/23 01:17:05;;;;;;;1.40;1.10;;;22.50;62.10;;;;;;20192;6935;311290;-77
2023/06/23 01:19:40;;;;;;;2.63;1.20;;;22.50;62.10;;;;;;20231;6935;285938;-77
2023/06/23 01:22:27;;;;;;;1.80;1.23;;;23.10;60.90;;;;;;20221;6935;282344;-77
2023/06/23 01:25:18;;;;;;;1.43;1.20;;;23.10;60.90;;;;;;20202;6935;315786;-76
2023/06/23 01:27:44;;;;;;;1.00;1.00;;;23.30;60.50;;;;;;20443;6935;117622;-77
2023/06/23 01:30:09;;;;;;;1.25;1.17;;;23.00;60.70;;;;;;20208;6935;312796;-77
2023/06/23 01:32:36;;;;;;;1.07;1.07;;;23.00;60.80;;;;;;20431;6935;117898;-77
2023/06/23 01:35:02;;;;;;;5.50;1.47;;;22.80;60.90;;;;;;20406;6935;147698;-77
2023/06/23 01:37:28;;;;;;;1.10;1.10;;;22.60;61.40;;;;;;20426;6935;118535;-77
2023/06/23 01:39:53;;;;;;;1.50;1.40;;;22.30;61.80;;;;;;20235;6935;311885;-77
2023/06/23 01:42:19;;;;;;;1.70;1.40;;;22.50;61.90;;;;;;20439;6935;118027;-77
2023/06/23 01:44:45;;;;;;;1.65;1.55;;;22.70;61.30;;;;;;20231;6935;316294;-78
2023/06/23 01:47:11;;;;;;;1.57;1.57;;;22.70;61.20;;;;;;20282;6935;118385;-77
2023/06/23 01:49:36;;;;;;;2.47;2.37;;;22.60;61.00;;;;;;20220;6933;311216;-77
2023/06/23 01:52:04;;;;;;;2.20;2.10;;;22.70;58.90;;;;;;20443;6935;117957;-77
2023/06/23 01:54:27;;;;;;;2.47;2.37;;;22.50;59.10;;;;;;20453;6935;117724;-77
2023/06/23 01:56:53;;;;;;;2.90;2.70;;;22.20;59.50;;;;;;20239;6935;314190;-76
2023/06/23 01:59:18;;;;;;;2.95;2.85;;;22.20;58.80;;;;;;20461;6935;117797;-77
2023/06/23 02:01:44;;;;;;;3.35;3.15;;;22.10;59.20;;;;;;20234;6935;313590;-77
2023/06/23 02:04:10;;;;;;;3.27;3.07;;;22.10;58.20;;;;;;20428;6935;117679;-77
2023/06/23 02:06:35;;;;;;;3.40;3.20;;;22.00;58.30;;;;;;20447;6935;117901;-77
2023/06/23 02:09:04;;;;;;;3.43;3.23;;;21.70;59.00;;;;;;20416;6935;118761;-77
2023/06/23 02:11:29;;;;;;;3.33;3.17;;;21.50;59.50;;;;;;20439;6935;122544;-77
2023/06/23 02:13:55;;;;;;;4.15;3.95;;;21.30;60.40;;;;;;20226;6935;313491;-77
2023/06/23 02:16:20;;;;;;;4.28;3.97;;;21.50;59.30;;;;;;20239;6935;282188;-78
2023/06/23 02:18:53;;;;;;;3.93;3.63;;;21.90;58.40;;;;;;20427;6935;150689;-77
2023/06/23 02:21:12;;;;;;;4.00;3.70;;;21.80;58.40;;;;;;20216;6935;315563;-77
2023/06/23 02:23:39;;;;;;;4.25;3.87;;;21.90;58.30;;;;;;20232;6935;311173;-77
2023/06/23 02:26:04;;;;;;;3.43;3.23;;;22.10;57.00;;;;;;20434;6935;123716;-77
2023/06/23 02:28:30;;;;;;;4.30;3.90;;;22.10;57.90;;;;;;20233;6935;286344;-77
2023/06/23 02:30:56;;;;;;;3.85;3.62;;;22.10;57.80;;;;;;20218;6935;311262;-77
2023/06/23 02:33:21;;;;;;;3.70;3.30;;;22.30;57.70;;;;;;20234;6935;281825;-77
2023/06/23 02:35:47;;;;;;;3.27;3.07;;;22.50;56.90;;;;;;20446;6935;117819;-77
2023/06/23 02:38:13;;;;;;;3.53;3.37;;;22.30;57.10;;;;;;20230;6935;311254;-77
2023/06/23 02:40:38;;;;;;;3.70;3.50;;;22.40;57.10;;;;;;20226;6935;321610;-77
2023/06/23 02:43:17;;;;;;;3.50;3.30;;;22.50;56.70;;;;;;20212;6935;315917;-77
2023/06/23 02:45:43;;;;;;;3.70;3.43;;;22.70;56.20;;;;;;20230;6935;323429;-77
2023/06/23 02:48:18;;;;;;;2.53;2.33;;;22.70;56.20;;;;;;20430;6935;119860;-77
2023/06/23 02:50:44;;;;;;;3.00;2.90;;;22.50;56.80;;;;;;20219;6935;311647;-77
2023/06/23 02:53:09;;;;;;;2.73;2.53;;;22.40;56.30;;;;;;20407;6935;117977;-77
2023/06/23 02:55:39;;;;;;;2.60;2.50;;;22.20;56.90;;;;;;20236;6935;283526;-77
2023/06/23 02:58:08;;;;;;;3.00;2.80;;;22.20;56.90;;;;;;20225;6935;318165;-77
2023/06/23 03:00:37;;;;;;;3.00;2.80;;;22.40;56.70;;;;;;20225;6934;311198;-77
2023/06/23 03:03:00;;;;;;;2.40;2.30;;;22.50;56.00;;;;;;20434;6935;121023;-77
2023/06/23 03:05:26;;;;;;;3.17;3.00;;;22.30;56.60;;;;;;20243;6935;345349;-77
2023/06/23 03:07:51;;;;;;;3.20;3.00;;;22.30;56.50;;;;;;20240;6935;313127;-77
2023/06/23 03:10:17;;;;;;;3.43;2.57;;;22.40;56.70;;;;;;20440;6935;118174;-77
2023/06/23 03:12:42;;;;;;;2.90;2.80;;;22.20;57.00;;;;;;20238;6935;316574;-77
2023/06/23 03:15:09;;;;;;;2.93;2.77;;;22.10;58.10;;;;;;20430;6935;118139;-77
2023/06/23 03:17:34;;;;;;;2.90;2.70;;;22.10;57.40;;;;;;20229;6935;339917;-77
2023/06/23 03:20:00;;;;;;;3.10;2.90;;;22.20;57.30;;;;;;20239;6935;311708;-77
2023/06/23 03:22:27;;;;;;;2.70;2.50;;;22.40;56.60;;;;;;20427;6935;118310;-77
2023/06/23 03:24:53;;;;;;;3.20;3.00;;;22.30;56.90;;;;;;20210;6935;311641;-77
2023/06/23 03:27:21;;;;;;;2.57;2.47;;;22.10;57.80;;;;;;20439;6935;118541;-77
2023/06/23 03:29:52;;;;;;;2.80;2.70;;;22.10;57.10;;;;;;20449;6935;118451;-77
2023/06/23 03:32:15;;;;;;;3.00;2.80;;;21.90;57.70;;;;;;20215;6935;299501;-77
2023/06/23 03:34:41;;;;;;;2.80;2.70;;;22.00;57.10;;;;;;20424;6935;117790;-77
2023/06/23 03:37:07;;;;;;;2.62;2.30;;;22.00;57.10;;;;;;20207;6935;281821;-77
2023/06/23 03:39:34;;;;;;;2.70;2.60;;;22.00;57.10;;;;;;20215;6935;318747;-77
2023/06/23 03:42:00;;;;;;;2.87;2.67;;;22.30;56.70;;;;;;20436;6935;117828;-77
2023/06/23 03:44:25;;;;;;;3.13;2.77;;;22.20;57.10;;;;;;20446;6935;118247;-77
2023/06/23 03:47:00;;;;;;;3.03;2.93;;;21.90;57.80;;;;;;20207;6935;301012;-76
2023/06/23 03:49:26;;;;;;;3.07;2.87;;;22.00;58.20;;;;;;20436;6935;117978;-76
2023/06/23 03:51:51;;;;;;;3.75;3.45;;;21.90;58.30;;;;;;20228;6935;281116;-76
2023/06/23 03:54:17;;;;;;;2.80;2.70;;;22.00;58.10;;;;;;20433;6935;117648;-75
2023/06/23 03:56:43;;;;;;;2.93;2.83;;;21.90;58.40;;;;;;20450;6935;118285;-75
2023/06/23 03:59:09;;;;;;;3.43;3.23;;;21.70;59.10;;;;;;20219;6935;340686;-76
2023/06/23 04:01:34;;;;;;;6.07;3.40;;;21.90;59.10;;;;;;20400;6935;117791;-76
2023/06/23 04:04:00;;;;;;;3.47;3.28;;;21.80;59.20;;;;;;20212;6935;311598;-76
2023/06/23 04:06:25;;;;;;;5.00;3.67;;;22.00;59.10;;;;;;20168;6935;347337;-76
2023/06/23 04:08:51;;;;;;;4.00;3.80;;;22.20;58.10;;;;;;20200;6935;286329;-76
2023/06/23 04:11:16;;;;;;;4.03;3.83;;;22.50;57.50;;;;;;20219;6934;311197;-76
2023/06/23 04:13:42;;;;;;;4.10;3.83;;;22.60;57.10;;;;;;20226;6935;282701;-76
2023/06/23 04:16:08;;;;;;;4.40;4.10;;;22.70;56.80;;;;;;20223;6935;286060;-75
2023/06/23 04:18:34;;;;;;;4.07;3.80;;;22.70;56.70;;;;;;20217;6935;293669;-75
2023/06/23 04:21:00;;;;;;;3.87;3.67;;;22.80;56.80;;;;;;20392;6935;117853;-78
2023/06/23 04:23:26;;;;;;;4.03;3.73;;;22.50;57.40;;;;;;20444;6935;117913;-76
2023/06/23 04:25:51;;;;;;;4.65;4.35;;;22.10;58.20;;;;;;20226;6935;282636;-75
2023/06/23 04:28:16;;;;;;;4.97;4.70;;;22.20;58.10;;;;;;20217;6935;318998;-76
2023/06/23 04:30:43;;;;;;;5.40;5.10;;;22.40;57.60;;;;;;20214;6935;314553;-78
2023/06/23 04:33:09;;;;;;;6.00;4.80;;;22.60;56.70;;;;;;20420;6935;119410;-76
2023/06/23 04:35:36;;;;;;;5.77;5.47;;;22.40;57.20;;;;;;20229;6935;310323;-77
2023/06/23 04:38:09;;;;;;;5.70;5.30;;;22.40;57.30;;;;;;20227;6935;311287;-78
2023/06/23 04:40:42;;;;;;;6.90;6.20;;;22.60;57.00;;;;;;20212;6935;316584;-76
2023/06/23 04:43:14;;;;;;;5.37;4.90;;;22.70;56.60;;;;;;20448;6935;117921;-76
2023/06/23 04:45:49;;;;;;;5.90;5.35;;;22.40;57.00;;;;;;20228;6935;344408;-75
2023/06/23 04:48:17;;;;;;;5.37;4.97;;;22.40;56.70;;;;;;19660;6924;122344;-80
2023/06/23 04:50:42;;;;;;;5.60;5.10;;;22.30;57.40;;;;;;20440;6939;122114;-77
2023/06/23 04:53:13;;;;;;;6.07;5.68;;;22.00;58.00;;;;;;20234;6927;325102;-75
2023/06/23 04:55:44;;;;;;;6.82;6.30;;;22.10;57.50;;;;;;20203;6940;286938;-77
2023/06/23 04:58:10;;;;;;;5.93;5.53;;;22.40;57.10;;;;;;20400;6939;117929;-75
2023/06/23 05:00:35;;;;;;;5.60;5.30;;;22.40;57.40;;;;;;20393;6939;117744;-74
2023/06/23 05:03:01;;;;;;;5.77;5.37;;;22.10;57.70;;;;;;20426;6934;118375;-77
2023/06/23 05:05:26;;;;;;;6.30;5.83;;;21.90;57.90;;;;;;20442;6934;118307;-77
2023/06/23 05:07:52;;;;;;;7.63;6.93;;;21.70;58.50;;;;;;20216;6939;311928;-76
2023/06/23 05:10:19;;;;;;;6.97;6.47;;;21.90;58.00;;;;;;20416;6939;118162;-75
2023/06/23 05:12:45;;;;;;;8.10;6.90;;;21.90;57.90;;;;;;20419;6939;121917;-76
2023/06/23 05:15:10;;;;;;;7.70;7.10;;;21.70;58.30;;;;;;20152;6939;282103;-76
2023/06/23 05:17:35;;;;;;;8.50;7.90;;;21.90;57.70;;;;;;20167;6939;305897;-77
2023/06/23 05:20:01;;;;;;;7.13;6.60;;;22.30;56.90;;;;;;20368;6939;119479;-74
2023/06/23 05:22:26;;;;;;;8.43;7.93;;;22.30;57.00;;;;;;20191;6938;282467;-74
2023/06/23 05:24:53;;;;;;;8.45;7.87;;;22.40;56.00;;;;;;20178;6938;345825;-75
2023/06/23 05:27:17;;;;;;;8.73;8.13;;;22.70;55.90;;;;;;20206;6924;312090;-77
2023/06/23 05:29:43;;;;;;;9.20;8.70;;;22.90;55.20;;;;;;20197;6924;300635;-77
2023/06/23 05:32:10;;;;;;;8.20;7.40;;;23.10;54.70;;;;;;20476;6924;124286;-76
2023/06/23 05:34:35;;;;;;;8.27;7.50;;;22.90;55.20;;;;;;20474;6924;119328;-75
2023/06/23 05:37:01;;;;;;;10.33;9.43;;;22.60;56.10;;;;;;20244;6924;281451;-74
2023/06/23 05:39:36;;;;;;;10.93;10.18;;;22.60;55.20;;;;;;20257;6924;282895;-74
2023/06/23 05:41:59;;;;;;;10.43;9.82;;;22.90;55.40;;;;;;20244;6924;283818;-75
2023/06/23 05:44:24;;;;;;;9.70;8.97;;;23.10;54.40;;;;;;20473;6924;118393;-75
2023/06/23 05:46:50;;;;;;;11.43;10.52;;;23.00;55.00;;;;;;20246;6924;281878;-75
2023/06/23 05:49:15;;;;;;;10.63;9.93;;;22.90;54.90;;;;;;20249;6924;341493;-75
2023/06/23 05:51:41;;;;;;;10.87;9.83;;;23.20;54.60;;;;;;20473;6924;118909;-75
2023/06/23 05:54:07;;;;;;;12.73;11.73;;;23.00;55.00;;;;;;20271;6924;282411;-75
2023/06/23 05:56:36;;;;;;;11.15;10.32;;;22.90;54.70;;;;;;20458;6924;118599;-75
2023/06/23 05:59:15;;;;;;;13.30;12.20;;;22.90;54.70;;;;;;20236;6924;311384;-75
2023/06/23 06:01:40;;;;;;;12.93;11.93;;;23.00;54.40;;;;;;20432;6924;118774;-76
2023/06/23 06:04:06;;;;;;;12.40;10.82;;;22.90;54.90;;;;;;20449;6925;119368;-75
2023/06/23 06:06:36;;;;;;;12.53;11.43;;;22.40;55.90;;;;;;20426;6936;118628;-75
2023/06/23 06:09:01;;;;;;;15.10;13.90;;;22.40;55.90;;;;;;20191;6927;281661;-76
2023/06/23 06:11:28;;;;;;;15.40;14.30;;;22.50;54.60;;;;;;20262;6925;282155;-75
2023/06/23 06:13:53;;;;;;;16.00;14.70;;;22.90;54.10;;;;;;20251;6925;311443;-76
2023/06/23 06:16:19;;;;;;;16.23;15.03;;;23.10;53.30;;;;;;20235;6935;313207;-76
2023/06/23 06:18:44;;;;;;;16.93;15.63;;;23.30;53.10;;;;;;20249;6935;286737;-75
2023/06/23 06:21:12;;;;;;;16.67;15.50;;;23.40;53.00;;;;;;20220;6935;342025;-76
2023/06/23 06:23:37;;;;;;;15.00;13.80;;;23.60;52.90;;;;;;20449;6935;118576;-76
2023/06/23 06:26:03;;;;;;;13.97;12.77;;;23.40;53.40;;;;;;20436;6935;118717;-76
2023/06/23 06:28:28;;;;;;;17.50;16.20;;;23.20;54.20;;;;;;20223;6935;281137;-76
2023/06/23 06:30:55;;;;;;;17.47;16.10;;;23.50;52.60;;;;;;20216;6935;341068;-76
2023/06/23 06:33:20;;;;;;;15.83;14.60;;;23.50;52.60;;;;;;20427;6935;118864;-75
2023/06/23 06:35:46;;;;;;;17.70;16.23;;;23.50;53.10;;;;;;20230;6933;341058;-77
2023/06/23 06:38:11;;;;;;;14.32;13.20;;;23.70;52.50;;;;;;20445;6934;118133;-76
2023/06/23 06:40:38;;;;;;;15.55;14.07;;;23.90;54.40;;;;;;20451;6934;118184;-76
2023/06/23 06:43:05;;;;;;;14.80;13.30;;;23.90;54.30;;;;;;20426;6934;134279;-76
2023/06/23 06:45:31;;;;;;;16.60;15.32;;;24.10;54.90;;;;;;20231;6934;311234;-75
2023/06/23 06:47:56;;;;;;;15.27;14.07;;;24.70;52.50;;;;;;20452;6934;118185;-75
2023/06/23 06:50:21;;;;;;;17.83;16.33;;;25.00;52.60;;;;;;20235;6934;284124;-74
2023/06/23 06:52:48;;;;;;;16.83;15.53;;;25.50;50.80;;;;;;20209;6934;281444;-75
2023/06/23 06:55:20;;;;;;;18.40;17.10;;;26.10;49.80;;;;;;20231;6935;282210;-74
2023/06/23 06:57:47;;;;;;;16.23;15.03;;;26.60;48.80;;;;;;20415;6935;118728;-74
2023/06/23 07:00:13;;;;;;;14.83;13.63;;;26.60;48.30;;;;;;20446;6935;118258;-75
2023/06/23 07:02:39;;;;;;;17.63;16.07;;;26.30;49.10;;;;;;20237;6935;284926;-74
2023/06/23 07:05:04;;;;;;;18.13;16.73;;;26.30;47.90;;;;;;20215;6935;297299;-75
2023/06/23 07:07:30;;;;;;;18.97;17.47;;;26.50;47.10;;;;;;20236;6935;285901;-75
2023/06/23 07:09:57;;;;;;;19.67;18.17;;;26.60;46.60;;;;;;20229;6935;282863;-75
2023/06/23 07:12:25;;;;;;;20.37;18.80;;;26.60;46.60;;;;;;20227;6935;313833;-75
2023/06/23 07:14:49;;;;;;;20.27;18.67;;;26.60;46.90;;;;;;20201;6935;287003;-75
2023/06/23 07:17:16;;;;;;;20.30;18.80;;;26.60;47.10;;;;;;20227;6935;310455;-75
2023/06/23 07:19:41;;;;;;;20.35;18.70;;;26.50;47.00;;;;;;20223;6935;311372;-74
2023/06/23 07:22:07;;;;;;;20.98;19.27;;;26.60;47.50;;;;;;20239;6935;282060;-74
2023/06/23 07:24:33;;;;;;;16.97;15.40;;;26.60;47.90;;;;;;20450;6935;119564;-74
2023/06/23 07:26:59;;;;;;;19.77;18.37;;;26.60;47.80;;;;;;20223;6935;311356;-76
2023/06/23 07:29:24;;;;;;;19.95;18.52;;;26.60;47.90;;;;;;20244;6935;281566;-76
2023/06/23 07:31:50;;;;;;;18.67;17.27;;;26.80;47.10;;;;;;20457;6935;118274;-74
2023/06/23 07:34:16;;;;;;;20.23;18.55;;;26.80;47.50;;;;;;20233;6935;311381;-74
2023/06/23 07:36:42;;;;;;;17.40;16.13;;;26.80;47.40;;;;;;20436;6935;118143;-74
2023/06/23 07:39:10;;;;;;;18.57;17.27;;;26.70;47.90;;;;;;20208;6935;302786;-74
2023/06/23 07:41:35;;;;;;;19.77;18.08;;;26.90;46.50;;;;;;20226;6935;315834;-73
2023/06/23 07:44:03;;;;;;;18.20;16.80;;;26.90;46.50;;;;;;20446;6935;118949;-78
2023/06/23 07:46:30;;;;;;;19.73;18.07;;;26.70;46.70;;;;;;20239;6933;313231;-74
2023/06/23 07:48:55;;;;;;;17.40;15.70;;;26.40;45.70;;;;;;20420;6934;122088;-74
2023/06/23 07:51:21;;;;;;;16.90;15.47;;;26.40;45.70;;;;;;20442;6934;122260;-74
2023/06/23 07:53:47;;;;;;;15.90;14.70;;;26.00;47.10;;;;;;20444;6934;118161;-74
2023/06/23 07:56:12;;;;;;;18.20;16.70;;;26.00;47.10;;;;;;20236;6934;285759;-74
2023/06/23 07:58:38;;;;;;;19.10;17.60;;;26.20;46.40;;;;;;20234;6934;311315;-74
2023/06/23 08:01:03;;;;;;;15.87;14.43;;;26.60;44.80;;;;;;20420;6934;119034;-75
2023/06/23 08:03:29;;;;;;;16.65;15.20;;;26.50;46.50;;;;;;20240;6934;286323;-74
2023/06/23 08:05:55;;;;;;;15.67;14.37;;;26.70;44.90;;;;;;20211;6935;345836;-74
2023/06/23 08:08:20;;;;;;;14.95;13.85;;;27.00;43.80;;;;;;20216;6935;282930;-74
2023/06/23 08:10:46;;;;;;;14.13;12.93;;;27.20;42.60;;;;;;20195;6935;311016;-73
2023/06/23 08:13:14;;;;;;;12.60;11.70;;;27.40;42.40;;;;;;20444;6924;121015;-74
2023/06/23 08:15:41;;;;;;;12.55;11.73;;;27.40;43.60;;;;;;20230;6939;341223;-74
2023/06/23 08:18:05;;;;;;;11.50;10.73;;;27.50;41.40;;;;;;20224;6939;282073;-78
2023/06/23 08:20:30;;;;;;;10.47;9.67;;;27.80;41.50;;;;;;20472;6924;122382;-74
2023/06/23 08:22:56;;;;;;;10.10;9.30;;;27.90;42.60;;;;;;20466;6924;118554;-73
2023/06/23 08:25:21;;;;;;;9.80;9.10;;;27.90;42.70;;;;;;20240;6924;316571;-74
2023/06/23 08:27:48;;;;;;;9.63;8.77;;;28.30;40.00;;;;;;20266;6924;281093;-74
2023/06/23 08:30:13;;;;;;;8.47;7.87;;;28.30;40.00;;;;;;20475;6924;117892;-74
2023/06/23 08:32:39;;;;;;;10.07;9.38;;;28.20;41.00;;;;;;20259;6924;341448;-74
2023/06/23 08:35:05;;;;;;;8.27;7.70;;;28.30;39.30;;;;;;20454;6924;121022;-74
2023/06/23 08:37:30;;;;;;;10.03;9.33;;;28.20;40.20;;;;;;20263;6924;281790;-74
2023/06/23 08:39:58;;;;;;;8.87;8.17;;;28.20;39.50;;;;;;20476;6924;119064;-73
2023/06/23 08:42:23;;;;;;;9.50;8.90;;;28.20;39.20;;;;;;20269;6924;311328;-73
2023/06/23 08:44:49;;;;;;;8.37;7.77;;;28.20;38.00;;;;;;20457;6924;121384;-73
2023/06/23 08:47:14;;;;;;;7.83;7.23;;;28.10;39.60;;;;;;20481;6924;120376;-73
2023/06/23 08:49:41;;;;;;;8.63;7.97;;;28.00;40.50;;;;;;20473;6924;117851;-74
2023/06/23 08:52:06;;;;;;;7.97;7.17;;;27.90;40.80;;;;;;20477;6924;117734;-73
2023/06/23 08:54:31;;;;;;;8.23;7.72;;;27.70;41.10;;;;;;20255;6924;346479;-74
2023/06/23 08:56:57;;;;;;;7.80;7.13;;;27.80;39.80;;;;;;20247;6924;311110;-78
2023/06/23 08:59:22;;;;;;;6.57;6.17;;;28.20;39.00;;;;;;20475;6923;118133;-77
2023/06/23 09:01:48;;;;;;;6.85;6.30;;;28.20;39.40;;;;;;20261;6924;311616;-75
2023/06/23 09:04:14;;;;;;;6.90;6.50;;;28.80;36.20;;;;;;20270;6924;286250;-75
2023/06/23 09:06:40;;;;;;;6.50;6.07;;;28.80;36.00;;;;;;20263;6924;327583;-74
2023/06/23 09:09:05;;;;;;;6.55;6.05;;;29.10;36.20;;;;;;20241;6924;308771;-74
2023/06/23 09:11:31;;;;;;;6.53;6.07;;;29.40;35.20;;;;;;20483;6924;117901;-74
2023/06/23 09:13:57;;;;;;;6.93;6.50;;;29.40;36.40;;;;;;20270;6924;281366;-74
2023/06/23 09:16:22;;;;;;;6.27;5.83;;;29.40;33.30;;;;;;20471;6924;118167;-74
2023/06/23 09:18:48;;;;;;;6.20;5.80;;;29.20;35.60;;;;;;20242;6924;281445;-74
2023/06/23 09:21:13;;;;;;;6.12;5.72;;;29.20;34.70;;;;;;20265;6924;344825;-74
2023/06/23 09:23:39;;;;;;;6.63;6.13;;;29.50;35.90;;;;;;20267;6924;315777;-74
2023/06/23 09:26:04;;;;;;;6.40;5.90;;;29.80;33.70;;;;;;20186;6924;321026;-74
2023/06/23 09:28:30;;;;;;;6.60;6.10;;;30.10;34.60;;;;;;20261;6924;340698;-74
2023/06/23 09:30:55;;;;;;;6.83;6.43;;;30.30;33.00;;;;;;20243;6924;286040;-74
2023/06/23 09:33:21;;;;;;;5.93;5.63;;;30.40;32.40;;;;;;20473;6924;119334;-74
2023/06/23 09:35:53;;;;;;;6.20;5.90;;;30.10;33.90;;;;;;20260;6924;311653;-74
2023/06/23 09:38:22;;;;;;;5.70;5.30;;;30.00;33.30;;;;;;20269;6924;311287;-74
2023/06/23 09:40:48;;;;;;;6.43;5.90;;;30.10;34.10;;;;;;20199;6925;311676;-75
2023/06/23 09:43:14;;;;;;;6.22;5.85;;;30.20;33.60;;;;;;20185;6939;341199;-74
2023/06/23 09:45:39;;;;;;;5.70;5.30;;;30.30;34.50;;;;;;20221;6939;282746;-74
2023/06/23 09:48:05;;;;;;;5.65;5.25;;;30.40;34.90;;;;;;20221;6939;312003;-74
2023/06/23 09:50:30;;;;;;;5.68;5.35;;;30.50;34.40;;;;;;20182;6939;341676;-74
2023/06/23 09:53:04;;;;;;;5.73;5.23;;;30.30;34.00;;;;;;20416;6939;122971;-74
2023/06/23 09:55:29;;;;;;;5.70;5.40;;;30.30;34.00;;;;;;20210;6939;284828;-74
2023/06/23 09:57:54;;;;;;;5.47;5.03;;;30.20;33.70;;;;;;20431;6939;117991;-75
2023/06/23 10:00:20;;;;;;;6.03;5.53;;;29.90;34.60;;;;;;20230;6939;287291;-74
2023/06/23 10:02:46;;;;;;;6.37;6.00;;;29.60;33.80;;;;;;20186;6939;281181;-78
2023/06/23 10:05:11;;;;;;;6.30;5.80;;;29.50;33.10;;;;;;20068;6939;295966;-74
2023/06/23 10:07:37;;;;;;;5.63;5.30;;;29.40;33.30;;;;;;20191;6934;341548;-74
2023/06/23 10:10:07;;;;;;;6.00;5.60;;;29.40;34.00;;;;;;20188;6949;286211;-74
2023/06/23 10:12:28;;;;;;;5.87;5.30;;;29.40;35.30;;;;;;20220;6932;311326;-74
2023/06/23 10:14:54;;;;;;;6.30;5.20;;;29.50;35.30;;;;;;20430;6935;118595;-75
2023/06/23 10:17:19;;;;;;;5.40;5.10;;;29.50;36.10;;;;;;20245;6933;286880;-74
2023/06/23 10:19:45;;;;;;;5.60;5.20;;;29.50;33.70;;;;;;20262;6933;285639;-73
2023/06/23 10:22:10;;;;;;;5.33;5.03;;;29.60;33.30;;;;;;20449;6933;117801;-74
2023/06/23 10:24:37;;;;;;;5.82;5.43;;;29.50;33.80;;;;;;20233;6933;281781;-73
2023/06/23 10:27:04;;;;;;;5.33;4.93;;;29.50;34.00;;;;;;20404;6932;121953;-75
2023/06/23 10:29:29;;;;;;;5.77;5.40;;;29.50;34.00;;;;;;20249;6932;284812;-75
2023/06/23 10:31:56;;;;;;;5.60;5.20;;;29.50;33.80;;;;;;20199;6932;311229;-75
2023/06/23 10:34:21;;;;;;;5.43;4.90;;;29.50;33.50;;;;;;20458;6932;117665;-74
2023/06/23 10:36:46;;;;;;;5.40;5.00;;;29.30;34.50;;;;;;20250;6932;311169;-79
2023/06/23 10:39:12;;;;;;;6.03;5.53;;;29.40;34.90;;;;;;20065;6932;285998;-74
2023/06/23 10:41:40;;;;;;;6.20;5.80;;;29.70;33.50;;;;;;20241;6932;281149;-76
2023/06/23 10:44:06;;;;;;;5.65;5.35;;;30.00;33.00;;;;;;20229;6932;345858;-76
2023/06/23 10:46:31;;;;;;;5.87;5.33;;;30.10;32.50;;;;;;20243;6932;280998;-75
2023/06/23 10:48:56;;;;;;;5.60;5.10;;;30.00;32.70;;;;;;20434;6932;119911;-74
2023/06/23 10:51:23;;;;;;;5.00;4.60;;;29.50;34.10;;;;;;20453;6932;117928;-74
2023/06/23 10:53:55;;;;;;;5.53;5.13;;;29.50;34.10;;;;;;20240;6932;315086;-77
2023/06/23 10:56:34;;;;;;;5.33;4.83;;;29.60;34.10;;;;;;20204;6932;287262;-74
2023/06/23 10:59:20;;;;;;;5.57;5.10;;;30.00;33.80;;;;;;20204;6932;281573;-73
2023/06/23 11:02:00;;;;;;;5.87;5.47;;;30.40;31.70;;;;;;20236;6932;310597;-76
2023/06/23 11:04:29;;;;;;;5.70;5.15;;;30.40;31.60;;;;;;20083;6932;281770;-75
2023/06/23 11:07:02;;;;;;;5.12;4.82;;;30.30;31.10;;;;;;20200;6932;340020;-71
2023/06/23 11:09:52;;;;;;;5.18;4.80;;;30.20;31.40;;;;;;20230;6932;318267;-77
2023/06/23 11:12:38;;;;;;;4.77;4.43;;;30.10;33.20;;;;;;20443;6932;122500;-73
2023/06/23 11:15:27;;;;;;;4.83;4.43;;;30.00;33.10;;;;;;20413;6932;118706;-76
2023/06/23 11:17:46;;;;;;;4.53;4.23;;;29.70;33.40;;;;;;20325;6932;118159;-74
2023/06/23 11:20:11;;;;;;;5.93;5.43;;;29.70;33.40;;;;;;20192;6932;311121;-75
2023/06/23 11:22:38;;;;;;;5.60;5.20;;;30.20;33.30;;;;;;20229;6930;311540;-74
2023/06/23 11:25:04;;;;;;;4.77;4.47;;;30.20;33.40;;;;;;20412;6932;119576;-74
2023/06/23 11:27:30;;;;;;;4.93;4.53;;;30.30;33.60;;;;;;20228;6932;281379;-76
2023/06/23 11:30:15;;;;;;;4.53;4.33;;;30.50;32.20;;;;;;20446;6932;117641;-76
2023/06/23 11:32:39;;;;;;;4.73;4.43;;;30.50;31.80;;;;;;20220;6932;284787;-74
2023/06/23 11:35:06;;;;;;;4.63;4.30;;;30.60;31.60;;;;;;20209;6932;440504;-74
2023/06/23 11:37:33;;;;;;;4.30;4.00;;;30.90;31.10;;;;;;20437;6932;119156;-80
2023/06/23 11:39:58;;;;;;;4.70;4.30;;;30.90;31.30;;;;;;20460;6932;67907;-76
2023/06/23 11:42:23;;;;;;;4.90;4.50;;;30.50;31.60;;;;;;20447;6932;117760;-75
2023/06/23 11:44:49;;;;;;;4.30;4.00;;;30.20;31.80;;;;;;20440;6932;119076;-76
2023/06/23 11:47:16;;;;;;;4.43;4.12;;;29.90;32.10;;;;;;20244;6932;281699;-77
2023/06/23 11:49:42;;;;;;;5.77;4.00;;;30.00;31.40;;;;;;20453;6932;118130;-76
2023/06/23 11:52:07;;;;;;;4.67;4.43;;;29.90;31.50;;;;;;20450;6932;117889;-77
2023/06/23 11:54:35;;;;;;;4.78;4.47;;;29.60;31.80;;;;;;20250;6932;315698;-77
2023/06/23 11:56:59;;;;;;;4.77;4.37;;;29.70;31.10;;;;;;20436;6932;123799;-76
2023/06/23 11:59:24;;;;;;;4.10;3.83;;;29.90;31.90;;;;;;20461;6932;118889;-76
2023/06/23 12:01:51;;;;;;;4.77;4.50;;;29.90;31.90;;;;;;20250;6932;314851;-77
2023/06/23 12:04:21;;;;;;;3.90;3.70;;;29.90;30.30;;;;;;20413;6932;119265;-76
2023/06/23 12:06:47;;;;;;;5.10;4.70;;;29.90;30.20;;;;;;20204;6932;281911;-79
2023/06/23 12:09:12;;;;;;;5.00;4.70;;;29.90;29.90;;;;;;20244;6932;314185;-76
2023/06/23 12:11:38;;;;;;;4.27;4.00;;;29.90;29.70;;;;;;20442;6932;117883;-75
2023/06/23 12:14:04;;;;;;;5.20;4.80;;;29.50;30.00;;;;;;20238;6932;310799;-76
2023/06/23 12:16:36;;;;;;;4.17;3.97;;;29.50;30.00;;;;;;20443;6932;121245;-75
2023/06/23 12:19:01;;;;;;;4.63;4.40;;;29.20;30.80;;;;;;20223;6932;283191;-76
2023/06/23 12:21:27;;;;;;;4.30;4.10;;;29.30;32.10;;;;;;20259;6935;310942;-76
2023/06/23 12:23:53;;;;;;;5.82;4.60;;;29.60;32.10;;;;;;20198;6950;316891;-76
2023/06/23 12:26:20;;;;;;;4.73;4.43;;;30.10;32.30;;;;;;20399;6949;119556;-76
2023/06/23 12:28:46;;;;;;;4.63;4.33;;;30.10;32.30;;;;;;20441;6934;119514;-77
2023/06/23 12:31:12;;;;;;;4.90;4.70;;;29.60;32.10;;;;;;20391;6949;117228;-77